Terminal Aerodrome Forecast
Issued by NWS

Home | Current Version | Previous Version | Text Only | Print | Product List | Glossary On
Versions: 1 2 3 4 5 6 7 8 9 10 11 12 13 14 15 16 17 18 19 20 21 22 23
000
FTUS43 KMQT 201100
TAFCMX
TAF
KCMX 201135Z 2012/2112 31005KT 1/2SM FG VCSH OVC002
     FM201500 33007KT P6SM OVC007
     FM201800 32007KT P6SM OVC015
     FM210000 03004KT P6SM BKN015=

USA.gov is the U.S. government's official web portal to all federal, state and local government web resources and services.